sensor_id;sensor_type;location;lat;lon;timestamp;P1;durP1;ratioP1;P2;durP2;ratioP2
3712;SDS011;1872;51.406;6.856;2023-04-03T00:00:15;8.83;;;8.00;;
3712;SDS011;1872;51.406;6.856;2023-04-03T00:02:41;9.70;;;7.57;;
3712;SDS011;1872;51.406;6.856;2023-04-03T00:05:09;9.10;;;7.80;;
3712;SDS011;1872;51.406;6.856;2023-04-03T00:07:35;8.37;;;7.40;;
3712;SDS011;1872;51.406;6.856;2023-04-03T00:10:00;9.90;;;7.80;;
3712;SDS011;1872;51.406;6.856;2023-04-03T00:12:26;10.00;;;8.10;;
3712;SDS011;1872;51.406;6.856;2023-04-03T00:14:52;8.60;;;7.63;;
3712;SDS011;1872;51.406;6.856;2023-04-03T00:17:17;10.27;;;7.73;;
3712;SDS011;1872;51.406;6.856;2023-04-03T00:19:43;8.63;;;7.40;;
3712;SDS011;1872;51.406;6.856;2023-04-03T00:22:09;9.57;;;7.90;;
3712;SDS011;1872;51.406;6.856;2023-04-03T00:24:36;9.43;;;7.47;;
3712;SDS011;1872;51.406;6.856;2023-04-03T00:27:02;9.60;;;8.07;;
3712;SDS011;1872;51.406;6.856;2023-04-03T00:29:28;13.60;;;8.80;;
3712;SDS011;1872;51.406;6.856;2023-04-03T00:31:56;9.43;;;7.40;;
3712;SDS011;1872;51.406;6.856;2023-04-03T00:34:21;10.60;;;8.40;;
3712;SDS011;1872;51.406;6.856;2023-04-03T00:36:47;8.93;;;7.70;;
3712;SDS011;1872;51.406;6.856;2023-04-03T00:39:13;9.97;;;8.77;;
3712;SDS011;1872;51.406;6.856;2023-04-03T00:41:38;10.27;;;9.17;;
3712;SDS011;1872;51.406;6.856;2023-04-03T00:44:21;10.83;;;8.90;;
3712;SDS011;1872;51.406;6.856;2023-04-03T00:47:07;9.63;;;8.63;;
3712;SDS011;1872;51.406;6.856;2023-04-03T00:49:36;9.13;;;8.23;;
3712;SDS011;1872;51.406;6.856;2023-04-03T00:52:03;12.93;;;9.20;;
3712;SDS011;1872;51.406;6.856;2023-04-03T00:54:32;9.47;;;7.97;;
3712;SDS011;1872;51.406;6.856;2023-04-03T00:57:01;9.10;;;8.20;;
3712;SDS011;1872;51.406;6.856;2023-04-03T00:59:32;9.60;;;8.57;;
3712;SDS011;1872;51.406;6.856;2023-04-03T01:02:10;9.73;;;8.80;;
3712;SDS011;1872;51.406;6.856;2023-04-03T01:04:40;9.80;;;7.97;;
3712;SDS011;1872;51.406;6.856;2023-04-03T01:09:47;10.43;;;8.07;;
3712;SDS011;1872;51.406;6.856;2023-04-03T01:12:25;9.80;;;8.80;;
3712;SDS011;1872;51.406;6.856;2023-04-03T01:14:57;8.80;;;8.00;;
3712;SDS011;1872;51.406;6.856;2023-04-03T01:17:34;9.07;;;8.17;;
3712;SDS011;1872;51.406;6.856;2023-04-03T01:25:49;9.70;;;7.87;;
3712;SDS011;1872;51.406;6.856;2023-04-03T01:28:18;13.20;;;9.03;;
3712;SDS011;1872;51.406;6.856;2023-04-03T01:30:50;10.30;;;8.17;;
3712;SDS011;1872;51.406;6.856;2023-04-03T01:33:23;13.93;;;10.07;;
3712;SDS011;1872;51.406;6.856;2023-04-03T01:35:49;10.03;;;8.53;;
3712;SDS011;1872;51.406;6.856;2023-04-03T01:38:14;11.63;;;9.00;;
3712;SDS011;1872;51.406;6.856;2023-04-03T01:40:40;10.73;;;9.23;;
3712;SDS011;1872;51.406;6.856;2023-04-03T01:43:06;11.77;;;9.70;;
3712;SDS011;1872;51.406;6.856;2023-04-03T01:45:35;9.90;;;8.90;;
3712;SDS011;1872;51.406;6.856;2023-04-03T01:48:03;10.80;;;8.77;;
3712;SDS011;1872;51.406;6.856;2023-04-03T01:50:29;13.13;;;10.07;;
3712;SDS011;1872;51.406;6.856;2023-04-03T01:52:57;12.77;;;10.23;;
3712;SDS011;1872;51.406;6.856;2023-04-03T01:55:23;14.20;;;10.17;;
3712;SDS011;1872;51.406;6.856;2023-04-03T01:57:51;12.20;;;10.67;;
3712;SDS011;1872;51.406;6.856;2023-04-03T02:00:19;13.33;;;10.10;;
3712;SDS011;1872;51.406;6.856;2023-04-03T02:02:45;11.43;;;10.20;;
3712;SDS011;1872;51.406;6.856;2023-04-03T02:05:11;11.43;;;9.90;;
3712;SDS011;1872;51.406;6.856;2023-04-03T02:07:45;13.30;;;10.17;;
3712;SDS011;1872;51.406;6.856;2023-04-03T02:10:10;12.53;;;10.40;;
3712;SDS011;1872;51.406;6.856;2023-04-03T02:12:40;11.87;;;10.10;;
3712;SDS011;1872;51.406;6.856;2023-04-03T02:15:06;15.03;;;10.40;;
3712;SDS011;1872;51.406;6.856;2023-04-03T02:17:32;13.17;;;10.83;;
3712;SDS011;1872;51.406;6.856;2023-04-03T02:19:58;12.33;;;10.20;;
3712;SDS011;1872;51.406;6.856;2023-04-03T02:22:23;14.50;;;10.90;;
3712;SDS011;1872;51.406;6.856;2023-04-03T02:24:49;11.70;;;9.30;;
3712;SDS011;1872;51.406;6.856;2023-04-03T02:27:15;11.50;;;9.80;;
3712;SDS011;1872;51.406;6.856;2023-04-03T02:29:40;16.03;;;9.63;;
3712;SDS011;1872;51.406;6.856;2023-04-03T02:32:07;14.10;;;10.30;;
3712;SDS011;1872;51.406;6.856;2023-04-03T02:34:34;11.53;;;9.67;;
3712;SDS011;1872;51.406;6.856;2023-04-03T02:37:00;13.17;;;10.10;;
3712;SDS011;1872;51.406;6.856;2023-04-03T02:39:25;14.47;;;11.23;;
3712;SDS011;1872;51.406;6.856;2023-04-03T02:41:52;12.00;;;9.77;;
3712;SDS011;1872;51.406;6.856;2023-04-03T02:44:17;11.03;;;9.40;;
3712;SDS011;1872;51.406;6.856;2023-04-03T02:46:43;11.80;;;10.60;;
3712;SDS011;1872;51.406;6.856;2023-04-03T02:49:09;15.10;;;9.90;;
3712;SDS011;1872;51.406;6.856;2023-04-03T02:51:37;14.33;;;9.70;;
3712;SDS011;1872;51.406;6.856;2023-04-03T02:54:03;12.00;;;9.20;;
3712;SDS011;1872;51.406;6.856;2023-04-03T02:56:28;9.97;;;8.73;;
3712;SDS011;1872;51.406;6.856;2023-04-03T02:58:54;11.73;;;9.40;;
3712;SDS011;1872;51.406;6.856;2023-04-03T03:01:20;12.93;;;9.10;;
3712;SDS011;1872;51.406;6.856;2023-04-03T03:03:45;11.47;;;9.10;;
3712;SDS011;1872;51.406;6.856;2023-04-03T03:06:15;11.53;;;8.90;;
3712;SDS011;1872;51.406;6.856;2023-04-03T03:08:41;10.00;;;8.20;;
3712;SDS011;1872;51.406;6.856;2023-04-03T03:11:08;11.77;;;8.80;;
3712;SDS011;1872;51.406;6.856;2023-04-03T03:13:34;12.20;;;8.80;;
3712;SDS011;1872;51.406;6.856;2023-04-03T03:16:00;10.63;;;9.47;;
3712;SDS011;1872;51.406;6.856;2023-04-03T03:18:27;10.67;;;8.57;;
3712;SDS011;1872;51.406;6.856;2023-04-03T03:20:53;11.33;;;8.53;;
3712;SDS011;1872;51.406;6.856;2023-04-03T03:23:20;10.17;;;8.07;;
3712;SDS011;1872;51.406;6.856;2023-04-03T03:25:47;9.77;;;8.77;;
3712;SDS011;1872;51.406;6.856;2023-04-03T03:28:13;10.17;;;8.57;;
3712;SDS011;1872;51.406;6.856;2023-04-03T03:30:39;9.80;;;7.23;;
3712;SDS011;1872;51.406;6.856;2023-04-03T03:33:07;12.10;;;7.50;;
3712;SDS011;1872;51.406;6.856;2023-04-03T03:35:33;7.80;;;6.90;;
3712;SDS011;1872;51.406;6.856;2023-04-03T03:37:59;10.53;;;7.77;;
3712;SDS011;1872;51.406;6.856;2023-04-03T03:40:27;11.20;;;7.20;;
3712;SDS011;1872;51.406;6.856;2023-04-03T03:42:53;8.43;;;6.77;;
3712;SDS011;1872;51.406;6.856;2023-04-03T03:45:18;8.73;;;6.80;;
3712;SDS011;1872;51.406;6.856;2023-04-03T03:47:44;8.47;;;6.87;;
3712;SDS011;1872;51.406;6.856;2023-04-03T03:50:12;12.20;;;7.77;;
3712;SDS011;1872;51.406;6.856;2023-04-03T03:52:38;7.90;;;5.20;;
3712;SDS011;1872;51.406;6.856;2023-04-03T03:55:04;5.80;;;5.30;;
3712;SDS011;1872;51.406;6.856;2023-04-03T03:57:30;6.73;;;5.47;;
3712;SDS011;1872;51.406;6.856;2023-04-03T03:59:56;8.00;;;5.33;;
3712;SDS011;1872;51.406;6.856;2023-04-03T04:02:22;6.70;;;4.70;;
3712;SDS011;1872;51.406;6.856;2023-04-03T04:04:50;8.57;;;4.20;;
3712;SDS011;1872;51.406;6.856;2023-04-03T04:07:16;5.60;;;4.90;;
3712;SDS011;1872;51.406;6.856;2023-04-03T04:09:42;9.23;;;3.50;;
3712;SDS011;1872;51.406;6.856;2023-04-03T04:12:10;4.63;;;3.73;;
3712;SDS011;1872;51.406;6.856;2023-04-03T04:14:38;6.40;;;4.17;;
3712;SDS011;1872;51.406;6.856;2023-04-03T04:17:04;4.87;;;4.37;;
3712;SDS011;1872;51.406;6.856;2023-04-03T04:19:30;6.40;;;4.37;;
3712;SDS011;1872;51.406;6.856;2023-04-03T04:21:55;4.00;;;3.70;;
3712;SDS011;1872;51.406;6.856;2023-04-03T04:24:21;4.57;;;4.10;;
3712;SDS011;1872;51.406;6.856;2023-04-03T04:26:47;5.23;;;4.73;;
3712;SDS011;1872;51.406;6.856;2023-04-03T04:29:13;4.10;;;3.70;;
3712;SDS011;1872;51.406;6.856;2023-04-03T04:31:41;9.00;;;3.87;;
3712;SDS011;1872;51.406;6.856;2023-04-03T04:34:07;4.53;;;4.13;;
3712;SDS011;1872;51.406;6.856;2023-04-03T04:36:33;6.00;;;3.40;;
3712;SDS011;1872;51.406;6.856;2023-04-03T04:38:59;3.90;;;3.60;;
3712;SDS011;1872;51.406;6.856;2023-04-03T04:41:24;4.70;;;3.97;;
3712;SDS011;1872;51.406;6.856;2023-04-03T04:43:51;3.50;;;3.00;;
3712;SDS011;1872;51.406;6.856;2023-04-03T04:46:17;5.70;;;3.70;;
3712;SDS011;1872;51.406;6.856;2023-04-03T04:48:43;4.20;;;3.80;;
3712;SDS011;1872;51.406;6.856;2023-04-03T04:51:09;4.50;;;4.10;;
3712;SDS011;1872;51.406;6.856;2023-04-03T04:53:36;4.30;;;3.73;;
3712;SDS011;1872;51.406;6.856;2023-04-03T04:56:02;5.90;;;3.37;;
3712;SDS011;1872;51.406;6.856;2023-04-03T04:58:28;6.00;;;3.73;;
3712;SDS011;1872;51.406;6.856;2023-04-03T05:01:04;4.03;;;3.73;;
3712;SDS011;1872;51.406;6.856;2023-04-03T05:03:31;4.70;;;3.97;;
3712;SDS011;1872;51.406;6.856;2023-04-03T05:05:58;5.40;;;3.80;;
3712;SDS011;1872;51.406;6.856;2023-04-03T05:08:24;4.73;;;3.63;;
3712;SDS011;1872;51.406;6.856;2023-04-03T05:10:50;5.63;;;3.40;;
3712;SDS011;1872;51.406;6.856;2023-04-03T05:13:17;5.00;;;4.50;;
3712;SDS011;1872;51.406;6.856;2023-04-03T05:15:42;5.23;;;3.77;;
3712;SDS011;1872;51.406;6.856;2023-04-03T05:18:08;4.30;;;3.90;;
3712;SDS011;1872;51.406;6.856;2023-04-03T05:20:36;7.93;;;4.50;;
3712;SDS011;1872;51.406;6.856;2023-04-03T05:23:02;5.30;;;4.00;;
3712;SDS011;1872;51.406;6.856;2023-04-03T05:25:28;6.10;;;4.77;;
3712;SDS011;1872;51.406;6.856;2023-04-03T05:27:56;5.00;;;4.10;;
3712;SDS011;1872;51.406;6.856;2023-04-03T05:30:21;6.20;;;4.10;;
3712;SDS011;1872;51.406;6.856;2023-04-03T05:32:47;6.10;;;4.03;;
3712;SDS011;1872;51.406;6.856;2023-04-03T05:35:13;5.20;;;3.50;;
3712;SDS011;1872;51.406;6.856;2023-04-03T05:37:46;5.00;;;4.37;;
3712;SDS011;1872;51.406;6.856;2023-04-03T05:40:12;5.60;;;4.00;;
3712;SDS011;1872;51.406;6.856;2023-04-03T05:42:38;4.10;;;3.63;;
3712;SDS011;1872;51.406;6.856;2023-04-03T05:45:03;4.03;;;3.63;;
3712;SDS011;1872;51.406;6.856;2023-04-03T05:47:29;3.93;;;3.57;;
3712;SDS011;1872;51.406;6.856;2023-04-03T05:49:56;7.83;;;4.57;;
3712;SDS011;1872;51.406;6.856;2023-04-03T05:52:23;4.77;;;3.97;;
3712;SDS011;1872;51.406;6.856;2023-04-03T05:54:52;5.23;;;3.90;;
3712;SDS011;1872;51.406;6.856;2023-04-03T05:57:18;5.87;;;4.00;;
3712;SDS011;1872;51.406;6.856;2023-04-03T05:59:44;4.47;;;3.77;;
3712;SDS011;1872;51.406;6.856;2023-04-03T06:02:12;5.80;;;4.13;;
3712;SDS011;1872;51.406;6.856;2023-04-03T06:04:43;4.60;;;4.10;;
3712;SDS011;1872;51.406;6.856;2023-04-03T06:07:17;6.03;;;4.17;;
3712;SDS011;1872;51.406;6.856;2023-04-03T06:09:46;4.73;;;4.23;;
3712;SDS011;1872;51.406;6.856;2023-04-03T06:12:12;6.37;;;3.83;;
3712;SDS011;1872;51.406;6.856;2023-04-03T06:14:38;8.77;;;4.53;;
3712;SDS011;1872;51.406;6.856;2023-04-03T06:17:04;4.10;;;3.60;;
3712;SDS011;1872;51.406;6.856;2023-04-03T06:19:32;5.30;;;4.60;;
3712;SDS011;1872;51.406;6.856;2023-04-03T06:21:58;6.13;;;3.67;;
3712;SDS011;1872;51.406;6.856;2023-04-03T06:24:23;4.10;;;3.33;;
3712;SDS011;1872;51.406;6.856;2023-04-03T06:26:50;5.03;;;3.60;;
3712;SDS011;1872;51.406;6.856;2023-04-03T06:29:17;3.97;;;3.57;;
3712;SDS011;1872;51.406;6.856;2023-04-03T06:31:46;3.57;;;3.27;;
3712;SDS011;1872;51.406;6.856;2023-04-03T06:34:12;6.80;;;3.80;;
3712;SDS011;1872;51.406;6.856;2023-04-03T06:36:38;5.30;;;3.80;;
3712;SDS011;1872;51.406;6.856;2023-04-03T06:39:04;7.17;;;3.60;;
3712;SDS011;1872;51.406;6.856;2023-04-03T06:41:30;4.53;;;3.83;;
3712;SDS011;1872;51.406;6.856;2023-04-03T06:43:59;5.30;;;3.60;;
3712;SDS011;1872;51.406;6.856;2023-04-03T06:46:25;4.00;;;3.30;;
3712;SDS011;1872;51.406;6.856;2023-04-03T06:48:51;4.33;;;3.03;;
3712;SDS011;1872;51.406;6.856;2023-04-03T06:51:19;4.20;;;3.63;;
3712;SDS011;1872;51.406;6.856;2023-04-03T06:53:51;4.23;;;3.17;;
3712;SDS011;1872;51.406;6.856;2023-04-03T06:56:17;5.60;;;3.53;;
3712;SDS011;1872;51.406;6.856;2023-04-03T06:58:44;4.30;;;3.13;;
3712;SDS011;1872;51.406;6.856;2023-04-03T07:01:10;9.43;;;4.27;;
3712;SDS011;1872;51.406;6.856;2023-04-03T07:03:37;3.60;;;3.30;;
3712;SDS011;1872;51.406;6.856;2023-04-03T07:06:07;4.73;;;4.00;;
3712;SDS011;1872;51.406;6.856;2023-04-03T07:08:35;5.33;;;3.63;;
3712;SDS011;1872;51.406;6.856;2023-04-03T07:11:01;5.47;;;3.23;;
3712;SDS011;1872;51.406;6.856;2023-04-03T07:13:27;9.03;;;4.17;;
3712;SDS011;1872;51.406;6.856;2023-04-03T07:15:53;5.40;;;3.67;;
3712;SDS011;1872;51.406;6.856;2023-04-03T07:18:20;4.50;;;4.10;;
3712;SDS011;1872;51.406;6.856;2023-04-03T07:20:46;7.90;;;2.80;;
3712;SDS011;1872;51.406;6.856;2023-04-03T07:23:12;5.23;;;3.80;;
3712;SDS011;1872;51.406;6.856;2023-04-03T07:25:42;4.50;;;3.40;;
3712;SDS011;1872;51.406;6.856;2023-04-03T07:28:12;6.50;;;3.77;;
3712;SDS011;1872;51.406;6.856;2023-04-03T07:30:42;3.83;;;3.53;;
3712;SDS011;1872;51.406;6.856;2023-04-03T07:33:09;3.67;;;3.37;;
3712;SDS011;1872;51.406;6.856;2023-04-03T07:35:34;6.10;;;3.63;;
3712;SDS011;1872;51.406;6.856;2023-04-03T07:38:00;4.00;;;3.60;;
3712;SDS011;1872;51.406;6.856;2023-04-03T07:40:26;6.80;;;3.50;;
3712;SDS011;1872;51.406;6.856;2023-04-03T07:42:52;5.33;;;3.87;;
3712;SDS011;1872;51.406;6.856;2023-04-03T07:45:18;4.23;;;3.43;;
3712;SDS011;1872;51.406;6.856;2023-04-03T07:47:44;3.40;;;3.10;;
3712;SDS011;1872;51.406;6.856;2023-04-03T07:50:10;6.90;;;3.17;;
3712;SDS011;1872;51.406;6.856;2023-04-03T07:52:36;3.30;;;3.00;;
3712;SDS011;1872;51.406;6.856;2023-04-03T07:55:01;4.00;;;3.03;;
3712;SDS011;1872;51.406;6.856;2023-04-03T07:57:35;7.17;;;3.60;;
3712;SDS011;1872;51.406;6.856;2023-04-03T08:00:02;5.07;;;2.80;;
3712;SDS011;1872;51.406;6.856;2023-04-03T08:02:29;3.30;;;3.00;;
3712;SDS011;1872;51.406;6.856;2023-04-03T08:04:59;3.47;;;3.00;;
3712;SDS011;1872;51.406;6.856;2023-04-03T08:07:24;3.37;;;2.63;;
3712;SDS011;1872;51.406;6.856;2023-04-03T08:09:51;3.73;;;3.07;;
3712;SDS011;1872;51.406;6.856;2023-04-03T08:12:16;3.90;;;2.67;;
3712;SDS011;1872;51.406;6.856;2023-04-03T08:14:42;4.80;;;3.33;;
3712;SDS011;1872;51.406;6.856;2023-04-03T08:17:08;5.40;;;3.30;;
3712;SDS011;1872;51.406;6.856;2023-04-03T08:19:37;3.80;;;3.50;;
3712;SDS011;1872;51.406;6.856;2023-04-03T08:22:04;4.40;;;3.43;;
3712;SDS011;1872;51.406;6.856;2023-04-03T08:24:31;6.93;;;3.47;;
3712;SDS011;1872;51.406;6.856;2023-04-03T08:26:57;3.97;;;2.87;;
3712;SDS011;1872;51.406;6.856;2023-04-03T08:29:23;4.63;;;3.20;;
3712;SDS011;1872;51.406;6.856;2023-04-03T08:31:51;3.40;;;2.67;;
3712;SDS011;1872;51.406;6.856;2023-04-03T08:34:17;4.27;;;3.03;;
3712;SDS011;1872;51.406;6.856;2023-04-03T08:36:43;3.13;;;2.30;;
3712;SDS011;1872;51.406;6.856;2023-04-03T08:39:09;3.57;;;2.13;;
3712;SDS011;1872;51.406;6.856;2023-04-03T08:41:36;2.57;;;2.33;;
3712;SDS011;1872;51.406;6.856;2023-04-03T08:46:47;3.13;;;2.50;;
3712;SDS011;1872;51.406;6.856;2023-04-03T08:49:28;2.70;;;2.37;;
3712;SDS011;1872;51.406;6.856;2023-04-03T08:52:01;3.47;;;2.50;;
3712;SDS011;1872;51.406;6.856;2023-04-03T08:54:51;2.40;;;2.20;;
3712;SDS011;1872;51.406;6.856;2023-04-03T08:57:24;4.40;;;2.80;;
3712;SDS011;1872;51.406;6.856;2023-04-03T09:00:22;2.67;;;2.40;;
3712;SDS011;1872;51.406;6.856;2023-04-03T09:02:51;2.40;;;2.20;;
3712;SDS011;1872;51.406;6.856;2023-04-03T09:05:19;2.63;;;2.43;;
3712;SDS011;1872;51.406;6.856;2023-04-03T09:07:51;5.60;;;2.37;;
3712;SDS011;1872;51.406;6.856;2023-04-03T09:10:29;3.20;;;2.90;;
3712;SDS011;1872;51.406;6.856;2023-04-03T09:13:21;2.53;;;1.90;;
3712;SDS011;1872;51.406;6.856;2023-04-03T09:15:55;2.00;;;1.90;;
3712;SDS011;1872;51.406;6.856;2023-04-03T09:18:32;2.13;;;1.90;;
3712;SDS011;1872;51.406;6.856;2023-04-03T09:21:24;2.30;;;2.10;;
3712;SDS011;1872;51.406;6.856;2023-04-03T09:24:12;1.97;;;1.87;;
3712;SDS011;1872;51.406;6.856;2023-04-03T09:26:45;2.67;;;2.43;;
3712;SDS011;1872;51.406;6.856;2023-04-03T09:29:22;3.10;;;1.90;;
3712;SDS011;1872;51.406;6.856;2023-04-03T09:31:50;3.10;;;2.13;;
3712;SDS011;1872;51.406;6.856;2023-04-03T09:34:31;5.10;;;2.00;;
3712;SDS011;1872;51.406;6.856;2023-04-03T09:37:00;1.87;;;1.77;;
3712;SDS011;1872;51.406;6.856;2023-04-03T09:39:31;3.00;;;1.80;;
3712;SDS011;1872;51.406;6.856;2023-04-03T09:42:04;3.10;;;2.00;;
3712;SDS011;1872;51.406;6.856;2023-04-03T09:44:55;1.80;;;1.70;;
3712;SDS011;1872;51.406;6.856;2023-04-03T09:47:32;2.30;;;2.10;;
3712;SDS011;1872;51.406;6.856;2023-04-03T09:50:16;2.40;;;2.20;;
3712;SDS011;1872;51.406;6.856;2023-04-03T09:52:45;2.70;;;2.20;;
3712;SDS011;1872;51.406;6.856;2023-04-03T09:55:14;3.43;;;2.10;;
3712;SDS011;1872;51.406;6.856;2023-04-03T09:57:42;1.90;;;1.70;;
3712;SDS011;1872;51.406;6.856;2023-04-03T10:00:21;2.17;;;2.00;;
3712;SDS011;1872;51.406;6.856;2023-04-03T10:02:51;1.77;;;1.63;;
3712;SDS011;1872;51.406;6.856;2023-04-03T10:05:28;1.60;;;1.50;;
3712;SDS011;1872;51.406;6.856;2023-04-03T10:10:41;1.80;;;1.70;;
3712;SDS011;1872;51.406;6.856;2023-04-03T10:13:12;2.13;;;1.93;;
3712;SDS011;1872;51.406;6.856;2023-04-03T10:15:41;2.60;;;1.83;;
3712;SDS011;1872;51.406;6.856;2023-04-03T10:21:06;2.03;;;1.47;;
3712;SDS011;1872;51.406;6.856;2023-04-03T10:24:18;2.27;;;2.07;;
3712;SDS011;1872;51.406;6.856;2023-04-03T10:26:50;4.43;;;1.97;;
3712;SDS011;1872;51.406;6.856;2023-04-03T10:38:16;2.10;;;2.00;;
3712;SDS011;1872;51.406;6.856;2023-04-03T10:46:06;2.20;;;2.00;;
3712;SDS011;1872;51.406;6.856;2023-04-03T10:56:55;2.53;;;2.33;;
3712;SDS011;1872;51.406;6.856;2023-04-03T11:02:13;2.60;;;2.40;;
3712;SDS011;1872;51.406;6.856;2023-04-03T11:07:52;1.80;;;1.70;;
3712;SDS011;1872;51.406;6.856;2023-04-03T11:10:35;1.97;;;1.70;;
3712;SDS011;1872;51.406;6.856;2023-04-03T11:13:14;4.30;;;2.17;;
3712;SDS011;1872;51.406;6.856;2023-04-03T11:15:58;3.80;;;2.47;;
3712;SDS011;1872;51.406;6.856;2023-04-03T11:18:28;3.43;;;2.50;;
3712;SDS011;1872;51.406;6.856;2023-04-03T11:21:14;6.60;;;2.70;;
3712;SDS011;1872;51.406;6.856;2023-04-03T11:23:49;3.10;;;2.10;;
3712;SDS011;1872;51.406;6.856;2023-04-03T11:28:43;2.80;;;2.43;;
3712;SDS011;1872;51.406;6.856;2023-04-03T11:36:55;3.90;;;2.27;;
3712;SDS011;1872;51.406;6.856;2023-04-03T11:39:26;3.50;;;2.57;;
3712;SDS011;1872;51.406;6.856;2023-04-03T11:44:42;2.00;;;1.90;;
3712;SDS011;1872;51.406;6.856;2023-04-03T11:47:09;3.00;;;2.40;;
3712;SDS011;1872;51.406;6.856;2023-04-03T11:49:57;2.73;;;2.20;;
3712;SDS011;1872;51.406;6.856;2023-04-03T12:05:57;2.90;;;2.20;;
3712;SDS011;1872;51.406;6.856;2023-04-03T12:22:13;2.10;;;2.00;;
3712;SDS011;1872;51.406;6.856;2023-04-03T12:24:42;3.10;;;2.10;;
3712;SDS011;1872;51.406;6.856;2023-04-03T12:35:29;2.50;;;2.30;;
3712;SDS011;1872;51.406;6.856;2023-04-03T12:48:39;2.63;;;2.13;;
3712;SDS011;1872;51.406;6.856;2023-04-03T12:54:53;2.30;;;2.10;;
3712;SDS011;1872;51.406;6.856;2023-04-03T12:59:36;2.10;;;1.90;;
3712;SDS011;1872;51.406;6.856;2023-04-03T13:02:03;2.13;;;2.00;;
3712;SDS011;1872;51.406;6.856;2023-04-03T13:04:42;2.60;;;2.33;;
3712;SDS011;1872;51.406;6.856;2023-04-03T13:07:32;2.10;;;1.90;;
3712;SDS011;1872;51.406;6.856;2023-04-03T13:10:20;2.80;;;2.20;;
3712;SDS011;1872;51.406;6.856;2023-04-03T13:12:49;2.53;;;2.33;;
3712;SDS011;1872;51.406;6.856;2023-04-03T13:15:30;4.80;;;2.50;;
3712;SDS011;1872;51.406;6.856;2023-04-03T13:18:23;2.70;;;1.77;;
3712;SDS011;1872;51.406;6.856;2023-04-03T13:21:13;3.00;;;2.53;;
3712;SDS011;1872;51.406;6.856;2023-04-03T13:23:43;3.27;;;2.30;;
3712;SDS011;1872;51.406;6.856;2023-04-03T13:26:12;3.00;;;2.20;;
3712;SDS011;1872;51.406;6.856;2023-04-03T13:28:41;2.80;;;2.60;;
3712;SDS011;1872;51.406;6.856;2023-04-03T13:33:39;2.07;;;1.97;;
3712;SDS011;1872;51.406;6.856;2023-04-03T13:36:21;2.13;;;2.03;;
3712;SDS011;1872;51.406;6.856;2023-04-03T13:46:48;2.07;;;1.97;;
3712;SDS011;1872;51.406;6.856;2023-04-03T13:49:19;2.57;;;2.37;;
3712;SDS011;1872;51.406;6.856;2023-04-03T13:51:51;2.20;;;2.00;;
3712;SDS011;1872;51.406;6.856;2023-04-03T13:54:38;2.40;;;2.20;;
3712;SDS011;1872;51.406;6.856;2023-04-03T13:57:11;3.50;;;2.43;;
3712;SDS011;1872;51.406;6.856;2023-04-03T13:59:39;2.30;;;2.07;;
3712;SDS011;1872;51.406;6.856;2023-04-03T14:07:10;3.50;;;2.37;;
3712;SDS011;1872;51.406;6.856;2023-04-03T14:09:36;2.87;;;2.60;;
3712;SDS011;1872;51.406;6.856;2023-04-03T14:12:05;3.03;;;2.60;;
3712;SDS011;1872;51.406;6.856;2023-04-03T14:14:34;4.13;;;2.50;;
3712;SDS011;1872;51.406;6.856;2023-04-03T14:17:02;2.33;;;2.17;;
3712;SDS011;1872;51.406;6.856;2023-04-03T14:19:35;5.03;;;2.10;;
3712;SDS011;1872;51.406;6.856;2023-04-03T14:22:10;2.37;;;2.17;;
3712;SDS011;1872;51.406;6.856;2023-04-03T14:24:42;3.70;;;2.50;;
3712;SDS011;1872;51.406;6.856;2023-04-03T14:27:27;2.80;;;2.40;;
3712;SDS011;1872;51.406;6.856;2023-04-03T14:30:02;2.63;;;2.40;;
3712;SDS011;1872;51.406;6.856;2023-04-03T14:32:29;3.13;;;2.40;;
3712;SDS011;1872;51.406;6.856;2023-04-03T14:34:56;2.30;;;2.10;;
3712;SDS011;1872;51.406;6.856;2023-04-03T14:37:26;2.43;;;2.23;;
3712;SDS011;1872;51.406;6.856;2023-04-03T14:39:54;3.90;;;2.30;;
3712;SDS011;1872;51.406;6.856;2023-04-03T14:42:23;3.27;;;1.80;;
3712;SDS011;1872;51.406;6.856;2023-04-03T14:44:52;2.50;;;2.00;;
3712;SDS011;1872;51.406;6.856;2023-04-03T14:47:19;2.70;;;2.40;;
3712;SDS011;1872;51.406;6.856;2023-04-03T14:49:48;2.67;;;2.20;;
3712;SDS011;1872;51.406;6.856;2023-04-03T14:52:21;2.37;;;2.20;;
3712;SDS011;1872;51.406;6.856;2023-04-03T14:54:51;2.70;;;2.40;;
3712;SDS011;1872;51.406;6.856;2023-04-03T14:57:18;2.30;;;2.20;;
3712;SDS011;1872;51.406;6.856;2023-04-03T14:59:53;2.00;;;1.90;;
3712;SDS011;1872;51.406;6.856;2023-04-03T15:04:53;2.10;;;1.87;;
3712;SDS011;1872;51.406;6.856;2023-04-03T15:07:22;2.43;;;2.20;;
3712;SDS011;1872;51.406;6.856;2023-04-03T15:09:49;3.47;;;1.90;;
3712;SDS011;1872;51.406;6.856;2023-04-03T15:12:15;2.10;;;1.90;;
3712;SDS011;1872;51.406;6.856;2023-04-03T15:14:41;2.63;;;2.40;;
3712;SDS011;1872;51.406;6.856;2023-04-03T15:17:08;2.00;;;1.90;;
3712;SDS011;1872;51.406;6.856;2023-04-03T15:19:39;2.37;;;1.90;;
3712;SDS011;1872;51.406;6.856;2023-04-03T15:22:06;3.67;;;2.10;;
3712;SDS011;1872;51.406;6.856;2023-04-03T15:24:31;3.33;;;2.73;;
3712;SDS011;1872;51.406;6.856;2023-04-03T15:26:57;2.43;;;2.23;;
3712;SDS011;1872;51.406;6.856;2023-04-03T15:29:27;3.67;;;2.80;;
3712;SDS011;1872;51.406;6.856;2023-04-03T15:31:53;3.20;;;2.30;;
3712;SDS011;1872;51.406;6.856;2023-04-03T15:34:19;2.63;;;2.43;;
3712;SDS011;1872;51.406;6.856;2023-04-03T15:36:46;2.20;;;2.00;;
3712;SDS011;1872;51.406;6.856;2023-04-03T15:39:14;2.83;;;2.63;;
3712;SDS011;1872;51.406;6.856;2023-04-03T15:41:41;3.17;;;2.70;;
3712;SDS011;1872;51.406;6.856;2023-04-03T15:44:09;4.57;;;2.67;;
3712;SDS011;1872;51.406;6.856;2023-04-03T15:46:35;2.80;;;2.00;;
3712;SDS011;1872;51.406;6.856;2023-04-03T15:49:00;4.47;;;2.70;;
3712;SDS011;1872;51.406;6.856;2023-04-03T15:51:26;3.03;;;2.30;;
3712;SDS011;1872;51.406;6.856;2023-04-03T15:53:52;4.27;;;2.60;;
3712;SDS011;1872;51.406;6.856;2023-04-03T15:56:17;4.13;;;2.63;;
3712;SDS011;1872;51.406;6.856;2023-04-03T15:58:43;3.00;;;2.80;;
3712;SDS011;1872;51.406;6.856;2023-04-03T16:01:09;2.67;;;2.47;;
3712;SDS011;1872;51.406;6.856;2023-04-03T16:03:36;2.80;;;2.60;;
3712;SDS011;1872;51.406;6.856;2023-04-03T16:06:03;4.27;;;3.20;;
3712;SDS011;1872;51.406;6.856;2023-04-03T16:08:29;2.63;;;2.43;;
3712;SDS011;1872;51.406;6.856;2023-04-03T16:10:58;2.70;;;2.50;;
3712;SDS011;1872;51.406;6.856;2023-04-03T16:13:31;3.20;;;2.70;;
3712;SDS011;1872;51.406;6.856;2023-04-03T16:15:57;2.60;;;2.17;;
3712;SDS011;1872;51.406;6.856;2023-04-03T16:18:23;2.70;;;2.50;;
3712;SDS011;1872;51.406;6.856;2023-04-03T16:20:49;2.93;;;2.60;;
3712;SDS011;1872;51.406;6.856;2023-04-03T16:23:15;3.73;;;2.60;;
3712;SDS011;1872;51.406;6.856;2023-04-03T16:25:41;3.10;;;2.90;;
3712;SDS011;1872;51.406;6.856;2023-04-03T16:28:10;2.47;;;2.37;;
3712;SDS011;1872;51.406;6.856;2023-04-03T16:30:37;3.20;;;2.70;;
3712;SDS011;1872;51.406;6.856;2023-04-03T16:33:03;3.13;;;2.80;;
3712;SDS011;1872;51.406;6.856;2023-04-03T16:35:29;3.00;;;2.80;;
3712;SDS011;1872;51.406;6.856;2023-04-03T16:37:55;2.67;;;2.47;;
3712;SDS011;1872;51.406;6.856;2023-04-03T16:40:20;4.20;;;2.63;;
3712;SDS011;1872;51.406;6.856;2023-04-03T16:42:46;3.17;;;2.87;;
3712;SDS011;1872;51.406;6.856;2023-04-03T16:45:12;3.10;;;2.77;;
3712;SDS011;1872;51.406;6.856;2023-04-03T16:47:38;3.90;;;3.00;;
3712;SDS011;1872;51.406;6.856;2023-04-03T16:50:04;3.37;;;3.00;;
3712;SDS011;1872;51.406;6.856;2023-04-03T16:52:30;2.93;;;2.73;;
3712;SDS011;1872;51.406;6.856;2023-04-03T16:54:55;3.17;;;2.93;;
3712;SDS011;1872;51.406;6.856;2023-04-03T16:57:23;2.60;;;2.40;;
3712;SDS011;1872;51.406;6.856;2023-04-03T16:59:50;7.27;;;3.00;;
3712;SDS011;1872;51.406;6.856;2023-04-03T17:02:16;3.40;;;2.90;;
3712;SDS011;1872;51.406;6.856;2023-04-03T17:04:42;4.20;;;2.87;;
3712;SDS011;1872;51.406;6.856;2023-04-03T17:07:08;2.53;;;2.30;;
3712;SDS011;1872;51.406;6.856;2023-04-03T17:09:33;3.50;;;2.80;;
3712;SDS011;1872;51.406;6.856;2023-04-03T17:11:59;2.97;;;2.37;;
3712;SDS011;1872;51.406;6.856;2023-04-03T17:14:25;3.03;;;2.73;;
3712;SDS011;1872;51.406;6.856;2023-04-03T17:16:51;2.40;;;2.20;;
3712;SDS011;1872;51.406;6.856;2023-04-03T17:19:17;2.40;;;2.17;;
3712;SDS011;1872;51.406;6.856;2023-04-03T17:21:43;3.03;;;2.70;;
3712;SDS011;1872;51.406;6.856;2023-04-03T17:24:10;3.37;;;2.83;;
3712;SDS011;1872;51.406;6.856;2023-04-03T17:26:39;4.33;;;2.80;;
3712;SDS011;1872;51.406;6.856;2023-04-03T17:29:05;2.60;;;2.40;;